sensor_id;sensor_type;location;lat;lon;timestamp;temperature;humidity
52275;DHT22;38228;50.940;4.024;2023-11-19T00:00:16;14.00;99.90
52275;DHT22;38228;50.940;4.024;2023-11-19T00:02:42;13.90;99.90
52275;DHT22;38228;50.940;4.024;2023-11-19T00:05:08;14.00;99.90
52275;DHT22;38228;50.940;4.024;2023-11-19T00:07:35;14.00;99.90
52275;DHT22;38228;50.940;4.024;2023-11-19T00:10:02;14.00;99.90
52275;DHT22;38228;50.940;4.024;2023-11-19T00:12:32;14.00;99.90
52275;DHT22;38228;50.940;4.024;2023-11-19T00:14:58;14.00;99.90
52275;DHT22;38228;50.940;4.024;2023-11-19T00:17:23;14.00;99.90
52275;DHT22;38228;50.940;4.024;2023-11-19T00:19:49;14.00;99.90
52275;DHT22;38228;50.940;4.024;2023-11-19T00:22:17;14.00;99.90
52275;DHT22;38228;50.940;4.024;2023-11-19T00:24:42;14.00;99.90
52275;DHT22;38228;50.940;4.024;2023-11-19T00:27:08;14.10;99.90
52275;DHT22;38228;50.940;4.024;2023-11-19T00:29:34;14.10;99.90
52275;DHT22;38228;50.940;4.024;2023-11-19T00:31:59;14.00;99.90
52275;DHT22;38228;50.940;4.024;2023-11-19T00:34:25;14.00;99.90
52275;DHT22;38228;50.940;4.024;2023-11-19T00:36:51;13.90;99.90
52275;DHT22;38228;50.940;4.024;2023-11-19T00:39:17;13.90;99.90
52275;DHT22;38228;50.940;4.024;2023-11-19T00:41:43;14.00;99.90
52275;DHT22;38228;50.940;4.024;2023-11-19T00:44:09;13.90;99.90
52275;DHT22;38228;50.940;4.024;2023-11-19T00:46:34;13.90;99.90
52275;DHT22;38228;50.940;4.024;2023-11-19T00:49:00;13.90;99.90
52275;DHT22;38228;50.940;4.024;2023-11-19T00:51:26;13.90;99.90
52275;DHT22;38228;50.940;4.024;2023-11-19T00:53:52;13.90;99.90
52275;DHT22;38228;50.940;4.024;2023-11-19T00:56:21;13.90;99.90
52275;DHT22;38228;50.940;4.024;2023-11-19T00:58:47;13.90;99.90
52275;DHT22;38228;50.940;4.024;2023-11-19T01:01:13;13.80;99.90
52275;DHT22;38228;50.940;4.024;2023-11-19T01:03:38;13.90;99.90
52275;DHT22;38228;50.940;4.024;2023-11-19T01:06:05;14.00;99.90
52275;DHT22;38228;50.940;4.024;2023-11-19T01:08:30;13.90;99.90
52275;DHT22;38228;50.940;4.024;2023-11-19T01:10:56;13.90;99.90
52275;DHT22;38228;50.940;4.024;2023-11-19T01:13:22;14.00;99.90
52275;DHT22;38228;50.940;4.024;2023-11-19T01:15:48;14.00;99.90
52275;DHT22;38228;50.940;4.024;2023-11-19T01:18:13;14.00;99.90
52275;DHT22;38228;50.940;4.024;2023-11-19T01:20:39;14.00;99.90
52275;DHT22;38228;50.940;4.024;2023-11-19T01:23:05;13.90;99.90
52275;DHT22;38228;50.940;4.024;2023-11-19T01:25:30;13.90;99.90
52275;DHT22;38228;50.940;4.024;2023-11-19T01:27:56;13.80;99.90
52275;DHT22;38228;50.940;4.024;2023-11-19T01:30:24;13.60;99.90
52275;DHT22;38228;50.940;4.024;2023-11-19T01:32:51;13.60;99.90
52275;DHT22;38228;50.940;4.024;2023-11-19T01:35:16;13.70;99.90
52275;DHT22;38228;50.940;4.024;2023-11-19T01:37:42;13.60;99.90
52275;DHT22;38228;50.940;4.024;2023-11-19T01:40:08;13.60;99.90
52275;DHT22;38228;50.940;4.024;2023-11-19T01:42:40;13.70;99.90
52275;DHT22;38228;50.940;4.024;2023-11-19T01:45:07;13.70;99.90
52275;DHT22;38228;50.940;4.024;2023-11-19T01:47:34;13.70;99.90
52275;DHT22;38228;50.940;4.024;2023-11-19T01:50:01;13.80;99.90
52275;DHT22;38228;50.940;4.024;2023-11-19T01:52:33;13.70;99.90
52275;DHT22;38228;50.940;4.024;2023-11-19T01:55:00;13.70;99.90
52275;DHT22;38228;50.940;4.024;2023-11-19T01:57:26;13.70;99.90
52275;DHT22;38228;50.940;4.024;2023-11-19T01:59:52;13.70;99.90
52275;DHT22;38228;50.940;4.024;2023-11-19T02:02:19;13.60;99.90
52275;DHT22;38228;50.940;4.024;2023-11-19T02:04:49;13.50;99.90
52275;DHT22;38228;50.940;4.024;2023-11-19T02:07:16;13.60;99.90
52275;DHT22;38228;50.940;4.024;2023-11-19T02:09:43;13.60;99.90
52275;DHT22;38228;50.940;4.024;2023-11-19T02:12:10;13.70;99.90
52275;DHT22;38228;50.940;4.024;2023-11-19T02:14:38;13.70;99.90
52275;DHT22;38228;50.940;4.024;2023-11-19T02:17:04;13.50;99.90
52275;DHT22;38228;50.940;4.024;2023-11-19T02:19:30;13.60;99.90
52275;DHT22;38228;50.940;4.024;2023-11-19T02:21:56;13.60;99.90
52275;DHT22;38228;50.940;4.024;2023-11-19T02:24:26;13.50;99.90
52275;DHT22;38228;50.940;4.024;2023-11-19T02:27:02;13.50;99.90
52275;DHT22;38228;50.940;4.024;2023-11-19T02:29:33;13.50;99.90
52275;DHT22;38228;50.940;4.024;2023-11-19T02:32:00;13.50;99.90
52275;DHT22;38228;50.940;4.024;2023-11-19T02:34:28;13.60;99.90
52275;DHT22;38228;50.940;4.024;2023-11-19T02:36:54;13.50;99.90
52275;DHT22;38228;50.940;4.024;2023-11-19T02:39:20;13.40;99.90
52275;DHT22;38228;50.940;4.024;2023-11-19T02:41:47;13.40;99.90
52275;DHT22;38228;50.940;4.024;2023-11-19T02:44:16;13.30;99.90
52275;DHT22;38228;50.940;4.024;2023-11-19T02:46:42;13.30;99.90
52275;DHT22;38228;50.940;4.024;2023-11-19T02:49:07;13.30;99.90
52275;DHT22;38228;50.940;4.024;2023-11-19T02:51:33;13.30;99.90
52275;DHT22;38228;50.940;4.024;2023-11-19T02:54:00;13.20;99.90
52275;DHT22;38228;50.940;4.024;2023-11-19T02:56:26;13.30;99.90
52275;DHT22;38228;50.940;4.024;2023-11-19T02:58:52;13.20;99.90
52275;DHT22;38228;50.940;4.024;2023-11-19T03:01:23;13.20;99.90
52275;DHT22;38228;50.940;4.024;2023-11-19T03:03:55;13.20;99.90
52275;DHT22;38228;50.940;4.024;2023-11-19T03:06:23;13.10;99.90
52275;DHT22;38228;50.940;4.024;2023-11-19T03:08:49;13.10;99.90
52275;DHT22;38228;50.940;4.024;2023-11-19T03:11:15;12.90;99.90
52275;DHT22;38228;50.940;4.024;2023-11-19T03:13:41;12.90;99.90
52275;DHT22;38228;50.940;4.024;2023-11-19T03:16:07;12.90;99.90
52275;DHT22;38228;50.940;4.024;2023-11-19T03:18:33;12.90;99.90
52275;DHT22;38228;50.940;4.024;2023-11-19T03:20:58;12.80;99.90
52275;DHT22;38228;50.940;4.024;2023-11-19T03:23:24;12.80;99.90
52275;DHT22;38228;50.940;4.024;2023-11-19T03:25:54;12.80;99.90
52275;DHT22;38228;50.940;4.024;2023-11-19T03:28:19;12.80;99.90
52275;DHT22;38228;50.940;4.024;2023-11-19T03:30:45;12.60;99.90
52275;DHT22;38228;50.940;4.024;2023-11-19T03:33:11;12.70;99.90
52275;DHT22;38228;50.940;4.024;2023-11-19T03:35:36;12.70;99.90
52275;DHT22;38228;50.940;4.024;2023-11-19T03:38:02;12.70;99.90
52275;DHT22;38228;50.940;4.024;2023-11-19T03:40:28;12.70;99.90
52275;DHT22;38228;50.940;4.024;2023-11-19T03:42:56;12.70;99.90
52275;DHT22;38228;50.940;4.024;2023-11-19T03:45:23;12.80;99.90
52275;DHT22;38228;50.940;4.024;2023-11-19T03:47:50;12.60;99.90
52275;DHT22;38228;50.940;4.024;2023-11-19T03:50:16;12.60;99.90
52275;DHT22;38228;50.940;4.024;2023-11-19T03:52:41;12.70;99.90
52275;DHT22;38228;50.940;4.024;2023-11-19T03:55:07;12.70;99.90
52275;DHT22;38228;50.940;4.024;2023-11-19T03:57:34;12.70;99.90
52275;DHT22;38228;50.940;4.024;2023-11-19T04:00:00;12.80;99.90
52275;DHT22;38228;50.940;4.024;2023-11-19T04:02:32;12.70;99.90
52275;DHT22;38228;50.940;4.024;2023-11-19T04:04:58;12.70;99.90
52275;DHT22;38228;50.940;4.024;2023-11-19T04:07:23;12.70;99.90
52275;DHT22;38228;50.940;4.024;2023-11-19T04:09:49;12.70;99.90
52275;DHT22;38228;50.940;4.024;2023-11-19T04:12:15;12.80;99.90
52275;DHT22;38228;50.940;4.024;2023-11-19T04:14:41;12.70;99.90
52275;DHT22;38228;50.940;4.024;2023-11-19T04:17:06;12.80;99.90
52275;DHT22;38228;50.940;4.024;2023-11-19T04:19:32;12.70;99.90
52275;DHT22;38228;50.940;4.024;2023-11-19T04:21:58;12.60;99.90
52275;DHT22;38228;50.940;4.024;2023-11-19T04:24:24;12.60;99.90
52275;DHT22;38228;50.940;4.024;2023-11-19T04:26:50;12.60;99.90
52275;DHT22;38228;50.940;4.024;2023-11-19T04:29:16;12.60;99.90
52275;DHT22;38228;50.940;4.024;2023-11-19T04:31:43;12.50;99.90
52275;DHT22;38228;50.940;4.024;2023-11-19T04:34:09;12.60;99.90
52275;DHT22;38228;50.940;4.024;2023-11-19T04:36:37;12.60;99.90
52275;DHT22;38228;50.940;4.024;2023-11-19T04:39:03;12.50;99.90
52275;DHT22;38228;50.940;4.024;2023-11-19T04:41:49;12.60;99.90
52275;DHT22;38228;50.940;4.024;2023-11-19T04:44:16;12.60;99.90
52275;DHT22;38228;50.940;4.024;2023-11-19T04:46:42;12.70;99.90
52275;DHT22;38228;50.940;4.024;2023-11-19T04:49:10;12.60;99.90
52275;DHT22;38228;50.940;4.024;2023-11-19T04:51:43;12.50;99.90
52275;DHT22;38228;50.940;4.024;2023-11-19T04:54:09;12.50;99.90
52275;DHT22;38228;50.940;4.024;2023-11-19T04:56:36;12.40;99.90
52275;DHT22;38228;50.940;4.024;2023-11-19T04:59:03;12.40;99.90
52275;DHT22;38228;50.940;4.024;2023-11-19T05:01:28;12.30;99.90
52275;DHT22;38228;50.940;4.024;2023-11-19T05:03:55;12.30;99.90
52275;DHT22;38228;50.940;4.024;2023-11-19T05:06:22;12.20;99.90
52275;DHT22;38228;50.940;4.024;2023-11-19T05:08:48;12.20;99.90
52275;DHT22;38228;50.940;4.024;2023-11-19T05:11:13;12.30;99.90
52275;DHT22;38228;50.940;4.024;2023-11-19T05:13:43;12.40;99.90
52275;DHT22;38228;50.940;4.024;2023-11-19T05:16:11;12.40;99.90
52275;DHT22;38228;50.940;4.024;2023-11-19T05:18:39;12.20;99.90
52275;DHT22;38228;50.940;4.024;2023-11-19T05:21:05;12.20;99.90
52275;DHT22;38228;50.940;4.024;2023-11-19T05:23:32;12.10;99.90
52275;DHT22;38228;50.940;4.024;2023-11-19T05:26:02;12.20;99.90
52275;DHT22;38228;50.940;4.024;2023-11-19T05:28:28;12.10;99.90
52275;DHT22;38228;50.940;4.024;2023-11-19T05:30:54;12.10;99.90
52275;DHT22;38228;50.940;4.024;2023-11-19T05:33:20;12.10;99.90
52275;DHT22;38228;50.940;4.024;2023-11-19T05:35:45;12.10;99.90
52275;DHT22;38228;50.940;4.024;2023-11-19T05:38:11;12.00;99.90
52275;DHT22;38228;50.940;4.024;2023-11-19T05:40:37;12.10;99.90
52275;DHT22;38228;50.940;4.024;2023-11-19T05:43:04;12.10;99.90
52275;DHT22;38228;50.940;4.024;2023-11-19T05:45:31;12.10;99.90
52275;DHT22;38228;50.940;4.024;2023-11-19T05:47:57;12.00;99.90
52275;DHT22;38228;50.940;4.024;2023-11-19T05:50:23;12.00;99.90
52275;DHT22;38228;50.940;4.024;2023-11-19T05:52:49;12.00;99.90
52275;DHT22;38228;50.940;4.024;2023-11-19T05:55:15;11.90;99.90
52275;DHT22;38228;50.940;4.024;2023-11-19T05:57:41;11.90;99.90
52275;DHT22;38228;50.940;4.024;2023-11-19T06:00:07;11.90;99.90
52275;DHT22;38228;50.940;4.024;2023-11-19T06:02:34;11.90;99.90
52275;DHT22;38228;50.940;4.024;2023-11-19T06:05:00;11.90;99.90
52275;DHT22;38228;50.940;4.024;2023-11-19T06:07:27;11.90;99.90
52275;DHT22;38228;50.940;4.024;2023-11-19T06:09:53;11.90;99.90
52275;DHT22;38228;50.940;4.024;2023-11-19T06:12:19;11.90;99.90
52275;DHT22;38228;50.940;4.024;2023-11-19T06:14:45;11.80;99.90
52275;DHT22;38228;50.940;4.024;2023-11-19T06:17:10;11.70;99.90
52275;DHT22;38228;50.940;4.024;2023-11-19T06:19:37;11.70;99.90
52275;DHT22;38228;50.940;4.024;2023-11-19T06:22:03;11.60;99.90
52275;DHT22;38228;50.940;4.024;2023-11-19T06:24:29;11.60;99.90
52275;DHT22;38228;50.940;4.024;2023-11-19T06:26:55;11.70;99.90
52275;DHT22;38228;50.940;4.024;2023-11-19T06:29:21;11.70;99.90
52275;DHT22;38228;50.940;4.024;2023-11-19T06:31:46;11.80;99.90
52275;DHT22;38228;50.940;4.024;2023-11-19T06:34:15;11.70;99.90
52275;DHT22;38228;50.940;4.024;2023-11-19T06:36:41;11.60;99.90
52275;DHT22;38228;50.940;4.024;2023-11-19T06:39:09;11.60;99.90
52275;DHT22;38228;50.940;4.024;2023-11-19T06:41:34;11.60;99.90
52275;DHT22;38228;50.940;4.024;2023-11-19T06:44:03;11.50;99.90
52275;DHT22;38228;50.940;4.024;2023-11-19T06:46:30;11.60;99.90
52275;DHT22;38228;50.940;4.024;2023-11-19T06:48:56;11.50;99.90
52275;DHT22;38228;50.940;4.024;2023-11-19T06:51:22;11.60;99.90
52275;DHT22;38228;50.940;4.024;2023-11-19T06:53:50;11.60;99.90
52275;DHT22;38228;50.940;4.024;2023-11-19T06:56:22;11.70;99.90
52275;DHT22;38228;50.940;4.024;2023-11-19T06:58:49;11.70;99.90
52275;DHT22;38228;50.940;4.024;2023-11-19T07:01:15;11.70;99.90
52275;DHT22;38228;50.940;4.024;2023-11-19T07:03:41;11.60;99.90
52275;DHT22;38228;50.940;4.024;2023-11-19T07:06:07;11.60;99.90
52275;DHT22;38228;50.940;4.024;2023-11-19T07:08:34;11.60;99.90
52275;DHT22;38228;50.940;4.024;2023-11-19T07:10:59;11.60;99.90
52275;DHT22;38228;50.940;4.024;2023-11-19T07:13:25;11.60;99.90
52275;DHT22;38228;50.940;4.024;2023-11-19T07:15:55;11.70;99.90
52275;DHT22;38228;50.940;4.024;2023-11-19T07:18:21;11.80;99.90
52275;DHT22;38228;50.940;4.024;2023-11-19T07:20:48;11.80;99.90
52275;DHT22;38228;50.940;4.024;2023-11-19T07:23:14;11.90;99.90
52275;DHT22;38228;50.940;4.024;2023-11-19T07:25:43;11.90;99.90
52275;DHT22;38228;50.940;4.024;2023-11-19T07:28:12;11.80;99.90
52275;DHT22;38228;50.940;4.024;2023-11-19T07:30:38;11.70;99.90
52275;DHT22;38228;50.940;4.024;2023-11-19T07:33:04;11.80;99.90
52275;DHT22;38228;50.940;4.024;2023-11-19T07:35:30;11.80;99.90
52275;DHT22;38228;50.940;4.024;2023-11-19T07:37:56;11.80;99.90
52275;DHT22;38228;50.940;4.024;2023-11-19T07:40:23;11.90;99.90
52275;DHT22;38228;50.940;4.024;2023-11-19T07:42:49;12.00;99.90
52275;DHT22;38228;50.940;4.024;2023-11-19T07:45:16;11.90;99.90
52275;DHT22;38228;50.940;4.024;2023-11-19T07:47:42;12.00;99.90
52275;DHT22;38228;50.940;4.024;2023-11-19T07:50:10;12.10;99.90
52275;DHT22;38228;50.940;4.024;2023-11-19T07:52:36;12.10;99.90
52275;DHT22;38228;50.940;4.024;2023-11-19T07:55:02;12.10;99.90
52275;DHT22;38228;50.940;4.024;2023-11-19T07:57:28;12.20;99.90
52275;DHT22;38228;50.940;4.024;2023-11-19T07:59:56;12.30;99.90
52275;DHT22;38228;50.940;4.024;2023-11-19T08:02:22;12.50;99.90
52275;DHT22;38228;50.940;4.024;2023-11-19T08:04:49;12.60;99.90
52275;DHT22;38228;50.940;4.024;2023-11-19T08:07:21;12.70;99.90
52275;DHT22;38228;50.940;4.024;2023-11-19T08:09:47;12.60;99.90
52275;DHT22;38228;50.940;4.024;2023-11-19T08:12:13;12.70;99.90
52275;DHT22;38228;50.940;4.024;2023-11-19T08:14:41;12.70;99.90
52275;DHT22;38228;50.940;4.024;2023-11-19T08:17:07;12.70;99.90
52275;DHT22;38228;50.940;4.024;2023-11-19T08:19:32;12.60;99.90
52275;DHT22;38228;50.940;4.024;2023-11-19T08:21:58;12.60;99.90
52275;DHT22;38228;50.940;4.024;2023-11-19T08:24:24;12.70;99.90
52275;DHT22;38228;50.940;4.024;2023-11-19T08:26:50;12.70;99.90
52275;DHT22;38228;50.940;4.024;2023-11-19T08:29:15;12.70;99.90
52275;DHT22;38228;50.940;4.024;2023-11-19T08:31:42;12.60;99.90
52275;DHT22;38228;50.940;4.024;2023-11-19T08:34:07;12.60;99.90
52275;DHT22;38228;50.940;4.024;2023-11-19T08:36:34;12.30;99.90
52275;DHT22;38228;50.940;4.024;2023-11-19T08:39:00;12.30;99.90
52275;DHT22;38228;50.940;4.024;2023-11-19T08:41:26;12.20;99.90
52275;DHT22;38228;50.940;4.024;2023-11-19T08:43:52;12.20;99.90
52275;DHT22;38228;50.940;4.024;2023-11-19T08:46:18;12.30;99.90
52275;DHT22;38228;50.940;4.024;2023-11-19T08:48:44;12.10;99.90
52275;DHT22;38228;50.940;4.024;2023-11-19T08:51:10;12.10;99.90
52275;DHT22;38228;50.940;4.024;2023-11-19T08:53:35;12.10;99.90
52275;DHT22;38228;50.940;4.024;2023-11-19T08:56:01;12.10;99.90
52275;DHT22;38228;50.940;4.024;2023-11-19T08:58:28;12.30;99.90
52275;DHT22;38228;50.940;4.024;2023-11-19T09:00:54;12.40;99.90
52275;DHT22;38228;50.940;4.024;2023-11-19T09:03:20;12.30;99.90
52275;DHT22;38228;50.940;4.024;2023-11-19T09:05:46;12.40;99.90
52275;DHT22;38228;50.940;4.024;2023-11-19T09:08:12;12.50;99.90
52275;DHT22;38228;50.940;4.024;2023-11-19T09:10:37;12.50;99.90
52275;DHT22;38228;50.940;4.024;2023-11-19T09:13:03;12.70;99.90
52275;DHT22;38228;50.940;4.024;2023-11-19T09:15:29;12.90;99.90
52275;DHT22;38228;50.940;4.024;2023-11-19T09:17:56;13.00;99.90
52275;DHT22;38228;50.940;4.024;2023-11-19T09:20:22;13.10;99.90
52275;DHT22;38228;50.940;4.024;2023-11-19T09:22:47;13.20;99.90
52275;DHT22;38228;50.940;4.024;2023-11-19T09:25:13;13.30;99.90
52275;DHT22;38228;50.940;4.024;2023-11-19T09:31:18;13.50;99.90
52275;DHT22;38228;50.940;4.024;2023-11-19T09:33:44;13.70;99.90
52275;DHT22;38228;50.940;4.024;2023-11-19T09:36:12;13.60;99.90
52275;DHT22;38228;50.940;4.024;2023-11-19T09:38:40;13.80;99.90
52275;DHT22;38228;50.940;4.024;2023-11-19T09:41:06;13.90;99.90
52275;DHT22;38228;50.940;4.024;2023-11-19T09:43:35;13.80;99.90
52275;DHT22;38228;50.940;4.024;2023-11-19T09:46:05;13.80;99.90
52275;DHT22;38228;50.940;4.024;2023-11-19T09:48:35;13.80;99.90
52275;DHT22;38228;50.940;4.024;2023-11-19T09:51:06;13.80;99.90
52275;DHT22;38228;50.940;4.024;2023-11-19T09:53:32;13.90;99.90
52275;DHT22;38228;50.940;4.024;2023-11-19T09:56:05;13.90;99.90
52275;DHT22;38228;50.940;4.024;2023-11-19T10:00:53;13.80;99.90
52275;DHT22;38228;50.940;4.024;2023-11-19T10:03:19;13.80;99.90
52275;DHT22;38228;50.940;4.024;2023-11-19T10:05:45;13.80;99.90
52275;DHT22;38228;50.940;4.024;2023-11-19T10:08:11;13.80;99.90
52275;DHT22;38228;50.940;4.024;2023-11-19T10:10:37;13.70;99.90
52275;DHT22;38228;50.940;4.024;2023-11-19T10:13:03;13.70;99.90
52275;DHT22;38228;50.940;4.024;2023-11-19T10:15:32;13.60;99.90
52275;DHT22;38228;50.940;4.024;2023-11-19T10:18:01;13.50;99.90
52275;DHT22;38228;50.940;4.024;2023-11-19T10:20:26;13.60;99.90
52275;DHT22;38228;50.940;4.024;2023-11-19T10:22:53;13.50;99.90
52275;DHT22;38228;50.940;4.024;2023-11-19T10:25:24;13.50;99.90
52275;DHT22;38228;50.940;4.024;2023-11-19T10:27:51;13.50;99.90
52275;DHT22;38228;50.940;4.024;2023-11-19T10:30:27;13.40;99.90
52275;DHT22;38228;50.940;4.024;2023-11-19T10:35:33;13.40;99.90
52275;DHT22;38228;50.940;4.024;2023-11-19T10:38:00;13.40;99.90
52275;DHT22;38228;50.940;4.024;2023-11-19T10:40:39;13.30;99.90
52275;DHT22;38228;50.940;4.024;2023-11-19T10:43:08;13.40;99.90
52275;DHT22;38228;50.940;4.024;2023-11-19T10:45:35;13.60;99.90
52275;DHT22;38228;50.940;4.024;2023-11-19T10:48:02;13.50;99.90
52275;DHT22;38228;50.940;4.024;2023-11-19T10:50:30;13.50;99.90
52275;DHT22;38228;50.940;4.024;2023-11-19T10:52:59;13.70;99.90
52275;DHT22;38228;50.940;4.024;2023-11-19T10:55:28;14.00;99.90
52275;DHT22;38228;50.940;4.024;2023-11-19T10:58:02;14.20;99.90
52275;DHT22;38228;50.940;4.024;2023-11-19T11:00:30;14.10;99.90
52275;DHT22;38228;50.940;4.024;2023-11-19T11:03:09;14.10;99.90
52275;DHT22;38228;50.940;4.024;2023-11-19T11:05:37;14.10;99.90
52275;DHT22;38228;50.940;4.024;2023-11-19T11:08:06;14.20;99.90
52275;DHT22;38228;50.940;4.024;2023-11-19T11:10:33;14.10;99.90
52275;DHT22;38228;50.940;4.024;2023-11-19T11:13:03;14.20;99.90
52275;DHT22;38228;50.940;4.024;2023-11-19T11:15:30;14.10;99.90
52275;DHT22;38228;50.940;4.024;2023-11-19T11:18:02;14.00;99.90
52275;DHT22;38228;50.940;4.024;2023-11-19T11:20:32;13.90;99.90
52275;DHT22;38228;50.940;4.024;2023-11-19T11:28:37;13.70;99.90
52275;DHT22;38228;50.940;4.024;2023-11-19T11:31:26;13.90;99.90
52275;DHT22;38228;50.940;4.024;2023-11-19T11:39:30;14.30;99.90
52275;DHT22;38228;50.940;4.024;2023-11-19T11:45:06;14.30;99.90
52275;DHT22;38228;50.940;4.024;2023-11-19T11:50:17;14.50;99.90
52275;DHT22;38228;50.940;4.024;2023-11-19T11:58:13;14.70;99.90
52275;DHT22;38228;50.940;4.024;2023-11-19T12:00:41;14.60;99.90
52275;DHT22;38228;50.940;4.024;2023-11-19T12:03:08;14.50;99.90
52275;DHT22;38228;50.940;4.024;2023-11-19T12:05:39;14.40;99.90
52275;DHT22;38228;50.940;4.024;2023-11-19T12:08:07;14.30;99.90
52275;DHT22;38228;50.940;4.024;2023-11-19T12:10:49;14.10;99.90
52275;DHT22;38228;50.940;4.024;2023-11-19T12:13:18;13.90;99.90
52275;DHT22;38228;50.940;4.024;2023-11-19T12:18:31;13.80;99.90
52275;DHT22;38228;50.940;4.024;2023-11-19T12:20:58;13.60;99.90
52275;DHT22;38228;50.940;4.024;2023-11-19T12:23:29;13.70;99.90
52275;DHT22;38228;50.940;4.024;2023-11-19T12:25:55;13.40;99.90
52275;DHT22;38228;50.940;4.024;2023-11-19T12:28:21;13.40;99.90
52275;DHT22;38228;50.940;4.024;2023-11-19T12:30:49;13.40;99.90
52275;DHT22;38228;50.940;4.024;2023-11-19T12:33:16;13.40;99.90
52275;DHT22;38228;50.940;4.024;2023-11-19T12:35:47;13.40;99.90
52275;DHT22;38228;50.940;4.024;2023-11-19T12:38:22;13.30;99.90
52275;DHT22;38228;50.940;4.024;2023-11-19T12:41:08;13.30;99.90
52275;DHT22;38228;50.940;4.024;2023-11-19T12:43:36;13.40;99.90
52275;DHT22;38228;50.940;4.024;2023-11-19T12:46:25;13.40;99.90
52275;DHT22;38228;50.940;4.024;2023-11-19T12:48:51;13.50;99.90
52275;DHT22;38228;50.940;4.024;2023-11-19T12:51:17;13.60;99.90
52275;DHT22;38228;50.940;4.024;2023-11-19T12:53:52;13.70;99.90
52275;DHT22;38228;50.940;4.024;2023-11-19T12:56:23;13.70;99.90
52275;DHT22;38228;50.940;4.024;2023-11-19T12:58:49;13.60;99.90
52275;DHT22;38228;50.940;4.024;2023-11-19T13:01:17;13.60;99.90
52275;DHT22;38228;50.940;4.024;2023-11-19T13:03:43;13.50;99.90
52275;DHT22;38228;50.940;4.024;2023-11-19T13:06:11;13.60;99.90
52275;DHT22;38228;50.940;4.024;2023-11-19T13:08:42;13.40;99.90
52275;DHT22;38228;50.940;4.024;2023-11-19T13:11:09;13.50;99.90
52275;DHT22;38228;50.940;4.024;2023-11-19T13:13:58;13.30;99.90
52275;DHT22;38228;50.940;4.024;2023-11-19T13:16:25;13.30;99.90
52275;DHT22;38228;50.940;4.024;2023-11-19T13:18:51;13.30;99.90
52275;DHT22;38228;50.940;4.024;2023-11-19T13:21:17;13.30;99.90
52275;DHT22;38228;50.940;4.024;2023-11-19T13:23:43;13.50;99.90
52275;DHT22;38228;50.940;4.024;2023-11-19T13:26:10;13.40;99.90
52275;DHT22;38228;50.940;4.024;2023-11-19T13:28:36;13.40;99.90
52275;DHT22;38228;50.940;4.024;2023-11-19T13:31:02;13.50;99.90
52275;DHT22;38228;50.940;4.024;2023-11-19T13:33:28;13.50;99.90
52275;DHT22;38228;50.940;4.024;2023-11-19T13:35:55;13.60;99.90
52275;DHT22;38228;50.940;4.024;2023-11-19T13:38:20;13.60;99.90
52275;DHT22;38228;50.940;4.024;2023-11-19T13:40:46;13.80;99.90
52275;DHT22;38228;50.940;4.024;2023-11-19T13:43:12;13.90;99.90
52275;DHT22;38228;50.940;4.024;2023-11-19T13:45:38;14.00;99.90
52275;DHT22;38228;50.940;4.024;2023-11-19T13:48:03;13.90;99.90
52275;DHT22;38228;50.940;4.024;2023-11-19T13:50:29;13.80;99.90
52275;DHT22;38228;50.940;4.024;2023-11-19T13:52:55;13.90;99.90
52275;DHT22;38228;50.940;4.024;2023-11-19T13:55:21;13.80;99.90
52275;DHT22;38228;50.940;4.024;2023-11-19T13:57:48;13.80;99.90
52275;DHT22;38228;50.940;4.024;2023-11-19T14:00:14;13.80;99.90
52275;DHT22;38228;50.940;4.024;2023-11-19T14:02:45;13.70;99.90
52275;DHT22;38228;50.940;4.024;2023-11-19T14:05:11;13.50;99.90
52275;DHT22;38228;50.940;4.024;2023-11-19T14:07:40;13.40;99.90
52275;DHT22;38228;50.940;4.024;2023-11-19T14:10:07;13.40;99.90
52275;DHT22;38228;50.940;4.024;2023-11-19T14:12:34;13.20;99.90
52275;DHT22;38228;50.940;4.024;2023-11-19T14:15:01;13.10;99.90
52275;DHT22;38228;50.940;4.024;2023-11-19T14:17:27;13.30;99.90
52275;DHT22;38228;50.940;4.024;2023-11-19T14:19:53;13.20;99.90
52275;DHT22;38228;50.940;4.024;2023-11-19T14:22:19;13.10;99.90
52275;DHT22;38228;50.940;4.024;2023-11-19T14:24:45;13.20;99.90
52275;DHT22;38228;50.940;4.024;2023-11-19T14:27:10;13.20;99.90
52275;DHT22;38228;50.940;4.024;2023-11-19T14:29:36;13.10;99.90
52275;DHT22;38228;50.940;4.024;2023-11-19T14:32:03;13.00;99.90
52275;DHT22;38228;50.940;4.024;2023-11-19T14:34:32;13.00;99.90
52275;DHT22;38228;50.940;4.024;2023-11-19T14:36:58;13.10;99.90
52275;DHT22;38228;50.940;4.024;2023-11-19T14:39:24;13.20;99.90
52275;DHT22;38228;50.940;4.024;2023-11-19T14:41:50;13.30;99.90
52275;DHT22;38228;50.940;4.024;2023-11-19T14:44:17;13.40;99.90
52275;DHT22;38228;50.940;4.024;2023-11-19T14:46:45;13.50;99.90
52275;DHT22;38228;50.940;4.024;2023-11-19T14:49:11;13.50;99.90
52275;DHT22;38228;50.940;4.024;2023-11-19T14:51:37;13.50;99.90
52275;DHT22;38228;50.940;4.024;2023-11-19T14:54:04;13.40;99.90
52275;DHT22;38228;50.940;4.024;2023-11-19T14:56:30;13.30;99.90
52275;DHT22;38228;50.940;4.024;2023-11-19T14:58:56;13.30;99.90
52275;DHT22;38228;50.940;4.024;2023-11-19T15:01:21;13.20;99.90
52275;DHT22;38228;50.940;4.024;2023-11-19T15:03:47;13.20;99.90
52275;DHT22;38228;50.940;4.024;2023-11-19T15:06:13;13.20;99.90
52275;DHT22;38228;50.940;4.024;2023-11-19T15:08:39;13.10;99.90
52275;DHT22;38228;50.940;4.024;2023-11-19T15:11:05;12.90;99.90
52275;DHT22;38228;50.940;4.024;2023-11-19T15:13:32;13.10;99.90
52275;DHT22;38228;50.940;4.024;2023-11-19T15:15:59;13.00;99.90
52275;DHT22;38228;50.940;4.024;2023-11-19T15:18:24;13.10;99.90
52275;DHT22;38228;50.940;4.024;2023-11-19T15:20:50;13.10;99.90
52275;DHT22;38228;50.940;4.024;2023-11-19T15:23:16;13.10;99.90
52275;DHT22;38228;50.940;4.024;2023-11-19T15:25:42;13.20;99.90
52275;DHT22;38228;50.940;4.024;2023-11-19T15:28:08;13.20;99.90
52275;DHT22;38228;50.940;4.024;2023-11-19T15:30:33;13.20;99.90
52275;DHT22;38228;50.940;4.024;2023-11-19T15:32:59;13.10;99.90
52275;DHT22;38228;50.940;4.024;2023-11-19T15:35:25;13.00;99.90
52275;DHT22;38228;50.940;4.024;2023-11-19T15:37:51;13.00;99.90
52275;DHT22;38228;50.940;4.024;2023-11-19T15:40:17;13.10;99.90
52275;DHT22;38228;50.940;4.024;2023-11-19T15:42:43;13.00;99.90
52275;DHT22;38228;50.940;4.024;2023-11-19T15:45:11;12.80;99.90
52275;DHT22;38228;50.940;4.024;2023-11-19T15:47:37;12.90;99.90
52275;DHT22;38228;50.940;4.024;2023-11-19T15:50:06;12.70;99.90
52275;DHT22;38228;50.940;4.024;2023-11-19T15:52:36;12.60;99.90
52275;DHT22;38228;50.940;4.024;2023-11-19T15:55:01;12.60;99.90
52275;DHT22;38228;50.940;4.024;2023-11-19T15:57:28;12.70;99.90
52275;DHT22;38228;50.940;4.024;2023-11-19T15:59:54;12.60;99.90
52275;DHT22;38228;50.940;4.024;2023-11-19T16:02:19;12.60;99.90